sensor_id;sensor_type;location;lat;lon;timestamp;temperature;humidity
18153;DHT22;9202;51.578;7.734;2023-04-25T00:02:47;6.40;99.90
18153;DHT22;9202;51.578;7.734;2023-04-25T00:04:49;6.40;99.90
18153;DHT22;9202;51.578;7.734;2023-04-25T00:06:52;6.40;99.90
18153;DHT22;9202;51.578;7.734;2023-04-25T00:08:55;6.40;99.90
18153;DHT22;9202;51.578;7.734;2023-04-25T00:10:58;6.40;99.90
18153;DHT22;9202;51.578;7.734;2023-04-25T00:13:01;6.40;99.90
18153;DHT22;9202;51.578;7.734;2023-04-25T00:15:05;6.30;99.90
18153;DHT22;9202;51.578;7.734;2023-04-25T00:17:08;6.30;99.90
18153;DHT22;9202;51.578;7.734;2023-04-25T00:19:10;6.40;99.90
18153;DHT22;9202;51.578;7.734;2023-04-25T00:21:13;6.30;99.90
18153;DHT22;9202;51.578;7.734;2023-04-25T00:23:15;6.40;99.90
18153;DHT22;9202;51.578;7.734;2023-04-25T00:25:20;6.40;99.90
18153;DHT22;9202;51.578;7.734;2023-04-25T00:27:22;6.40;99.90
18153;DHT22;9202;51.578;7.734;2023-04-25T00:29:25;6.40;99.90
18153;DHT22;9202;51.578;7.734;2023-04-25T00:31:27;6.40;99.90
18153;DHT22;9202;51.578;7.734;2023-04-25T00:33:30;6.40;99.90
18153;DHT22;9202;51.578;7.734;2023-04-25T00:35:33;6.50;99.90
18153;DHT22;9202;51.578;7.734;2023-04-25T00:37:36;6.50;99.90
18153;DHT22;9202;51.578;7.734;2023-04-25T00:39:39;6.50;99.90
18153;DHT22;9202;51.578;7.734;2023-04-25T00:41:42;6.60;99.90
18153;DHT22;9202;51.578;7.734;2023-04-25T00:43:45;6.60;99.90
18153;DHT22;9202;51.578;7.734;2023-04-25T00:45:48;6.60;99.90
18153;DHT22;9202;51.578;7.734;2023-04-25T00:47:51;6.60;99.90
18153;DHT22;9202;51.578;7.734;2023-04-25T00:49:54;6.70;99.90
18153;DHT22;9202;51.578;7.734;2023-04-25T00:51:57;6.80;99.90
18153;DHT22;9202;51.578;7.734;2023-04-25T00:53:59;6.70;99.90
18153;DHT22;9202;51.578;7.734;2023-04-25T00:56:02;6.70;99.90
18153;DHT22;9202;51.578;7.734;2023-04-25T00:58:05;6.80;99.90
18153;DHT22;9202;51.578;7.734;2023-04-25T01:00:09;6.80;99.90
18153;DHT22;9202;51.578;7.734;2023-04-25T01:02:12;6.80;99.90
18153;DHT22;9202;51.578;7.734;2023-04-25T01:04:16;6.70;99.90
18153;DHT22;9202;51.578;7.734;2023-04-25T01:06:20;6.80;99.90
18153;DHT22;9202;51.578;7.734;2023-04-25T01:08:24;6.70;99.90
18153;DHT22;9202;51.578;7.734;2023-04-25T01:10:28;6.70;99.90
18153;DHT22;9202;51.578;7.734;2023-04-25T01:12:30;6.80;99.90
18153;DHT22;9202;51.578;7.734;2023-04-25T01:14:33;6.80;99.90
18153;DHT22;9202;51.578;7.734;2023-04-25T01:16:35;6.80;99.90
18153;DHT22;9202;51.578;7.734;2023-04-25T01:18:39;6.80;99.90
18153;DHT22;9202;51.578;7.734;2023-04-25T01:20:42;6.80;99.90
18153;DHT22;9202;51.578;7.734;2023-04-25T01:22:45;6.80;99.90
18153;DHT22;9202;51.578;7.734;2023-04-25T01:27:02;6.80;99.90
18153;DHT22;9202;51.578;7.734;2023-04-25T01:29:05;6.80;99.90
18153;DHT22;9202;51.578;7.734;2023-04-25T01:31:09;6.80;99.90
18153;DHT22;9202;51.578;7.734;2023-04-25T01:33:13;6.90;99.90
18153;DHT22;9202;51.578;7.734;2023-04-25T01:35:16;6.90;99.90
18153;DHT22;9202;51.578;7.734;2023-04-25T01:37:18;6.90;99.90
18153;DHT22;9202;51.578;7.734;2023-04-25T01:39:22;6.90;99.90
18153;DHT22;9202;51.578;7.734;2023-04-25T01:41:24;6.90;99.90
18153;DHT22;9202;51.578;7.734;2023-04-25T01:43:27;6.90;99.90
18153;DHT22;9202;51.578;7.734;2023-04-25T01:45:30;6.90;99.90
18153;DHT22;9202;51.578;7.734;2023-04-25T01:47:34;7.00;99.90
18153;DHT22;9202;51.578;7.734;2023-04-25T01:49:37;7.00;99.90
18153;DHT22;9202;51.578;7.734;2023-04-25T01:51:39;7.00;99.90
18153;DHT22;9202;51.578;7.734;2023-04-25T01:53:42;7.00;99.90
18153;DHT22;9202;51.578;7.734;2023-04-25T01:55:46;7.00;99.90
18153;DHT22;9202;51.578;7.734;2023-04-25T01:57:50;6.90;99.90
18153;DHT22;9202;51.578;7.734;2023-04-25T01:59:55;6.90;99.90
18153;DHT22;9202;51.578;7.734;2023-04-25T02:02:02;6.90;99.90
18153;DHT22;9202;51.578;7.734;2023-04-25T02:04:05;6.90;99.90
18153;DHT22;9202;51.578;7.734;2023-04-25T02:06:10;6.90;99.90
18153;DHT22;9202;51.578;7.734;2023-04-25T02:08:16;6.90;99.90
18153;DHT22;9202;51.578;7.734;2023-04-25T02:10:18;7.00;99.90
18153;DHT22;9202;51.578;7.734;2023-04-25T02:12:23;6.90;99.90
18153;DHT22;9202;51.578;7.734;2023-04-25T02:14:29;6.90;99.90
18153;DHT22;9202;51.578;7.734;2023-04-25T02:16:34;6.90;99.90
18153;DHT22;9202;51.578;7.734;2023-04-25T02:18:37;6.90;99.90
18153;DHT22;9202;51.578;7.734;2023-04-25T02:20:41;6.90;99.90
18153;DHT22;9202;51.578;7.734;2023-04-25T02:22:44;6.90;99.90
18153;DHT22;9202;51.578;7.734;2023-04-25T02:24:46;6.90;99.90
18153;DHT22;9202;51.578;7.734;2023-04-25T02:26:49;6.90;99.90
18153;DHT22;9202;51.578;7.734;2023-04-25T02:28:52;6.90;99.90
18153;DHT22;9202;51.578;7.734;2023-04-25T02:30:54;6.90;99.90
18153;DHT22;9202;51.578;7.734;2023-04-25T02:32:58;6.90;99.90
18153;DHT22;9202;51.578;7.734;2023-04-25T02:35:01;6.90;99.90
18153;DHT22;9202;51.578;7.734;2023-04-25T02:37:05;6.90;99.90
18153;DHT22;9202;51.578;7.734;2023-04-25T02:39:08;6.80;99.90
18153;DHT22;9202;51.578;7.734;2023-04-25T02:41:10;6.80;99.90
18153;DHT22;9202;51.578;7.734;2023-04-25T02:43:13;6.80;99.90
18153;DHT22;9202;51.578;7.734;2023-04-25T02:45:15;6.80;99.90
18153;DHT22;9202;51.578;7.734;2023-04-25T02:47:18;6.80;99.90
18153;DHT22;9202;51.578;7.734;2023-04-25T02:49:20;6.70;99.90
18153;DHT22;9202;51.578;7.734;2023-04-25T02:51:23;6.60;99.90
18153;DHT22;9202;51.578;7.734;2023-04-25T02:53:25;6.60;99.90
18153;DHT22;9202;51.578;7.734;2023-04-25T02:55:28;6.60;99.90
18153;DHT22;9202;51.578;7.734;2023-04-25T02:57:31;6.60;99.90
18153;DHT22;9202;51.578;7.734;2023-04-25T02:59:34;6.60;99.90
18153;DHT22;9202;51.578;7.734;2023-04-25T03:01:36;6.60;99.90
18153;DHT22;9202;51.578;7.734;2023-04-25T03:03:39;6.60;99.90
18153;DHT22;9202;51.578;7.734;2023-04-25T03:05:42;6.60;99.90
18153;DHT22;9202;51.578;7.734;2023-04-25T03:07:45;6.60;99.90
18153;DHT22;9202;51.578;7.734;2023-04-25T03:09:48;6.60;99.90
18153;DHT22;9202;51.578;7.734;2023-04-25T03:11:50;6.60;99.90
18153;DHT22;9202;51.578;7.734;2023-04-25T03:13:53;6.60;99.90
18153;DHT22;9202;51.578;7.734;2023-04-25T03:15:55;6.50;99.90
18153;DHT22;9202;51.578;7.734;2023-04-25T03:17:58;6.50;99.90
18153;DHT22;9202;51.578;7.734;2023-04-25T03:20:01;6.60;99.90
18153;DHT22;9202;51.578;7.734;2023-04-25T03:22:06;6.50;99.90
18153;DHT22;9202;51.578;7.734;2023-04-25T03:24:08;6.50;99.90
18153;DHT22;9202;51.578;7.734;2023-04-25T03:26:12;6.50;99.90
18153;DHT22;9202;51.578;7.734;2023-04-25T03:28:15;6.60;99.90
18153;DHT22;9202;51.578;7.734;2023-04-25T03:30:18;6.50;99.90
18153;DHT22;9202;51.578;7.734;2023-04-25T03:32:20;6.50;99.90
18153;DHT22;9202;51.578;7.734;2023-04-25T03:34:23;6.50;99.90
18153;DHT22;9202;51.578;7.734;2023-04-25T03:36:26;6.50;99.90
18153;DHT22;9202;51.578;7.734;2023-04-25T03:38:29;6.50;99.90
18153;DHT22;9202;51.578;7.734;2023-04-25T03:40:31;6.50;99.90
18153;DHT22;9202;51.578;7.734;2023-04-25T03:42:36;6.50;99.90
18153;DHT22;9202;51.578;7.734;2023-04-25T03:44:39;6.50;99.90
18153;DHT22;9202;51.578;7.734;2023-04-25T03:46:42;6.50;99.90
18153;DHT22;9202;51.578;7.734;2023-04-25T03:48:45;6.60;99.90
18153;DHT22;9202;51.578;7.734;2023-04-25T03:50:49;6.60;99.90
18153;DHT22;9202;51.578;7.734;2023-04-25T03:55:08;6.60;99.90
18153;DHT22;9202;51.578;7.734;2023-04-25T03:57:11;6.60;99.90
18153;DHT22;9202;51.578;7.734;2023-04-25T03:59:14;6.60;99.90
18153;DHT22;9202;51.578;7.734;2023-04-25T04:01:17;6.60;99.90
18153;DHT22;9202;51.578;7.734;2023-04-25T04:03:20;6.60;99.90
18153;DHT22;9202;51.578;7.734;2023-04-25T04:05:23;6.60;99.90
18153;DHT22;9202;51.578;7.734;2023-04-25T04:07:28;6.60;99.90
18153;DHT22;9202;51.578;7.734;2023-04-25T04:09:32;6.60;99.90
18153;DHT22;9202;51.578;7.734;2023-04-25T04:11:36;6.60;99.90
18153;DHT22;9202;51.578;7.734;2023-04-25T04:13:40;6.60;99.90
18153;DHT22;9202;51.578;7.734;2023-04-25T04:15:43;6.60;99.90
18153;DHT22;9202;51.578;7.734;2023-04-25T04:17:45;6.60;99.90
18153;DHT22;9202;51.578;7.734;2023-04-25T04:19:49;6.60;99.90
18153;DHT22;9202;51.578;7.734;2023-04-25T04:21:53;6.60;99.90
18153;DHT22;9202;51.578;7.734;2023-04-25T04:23:56;6.60;99.90
18153;DHT22;9202;51.578;7.734;2023-04-25T04:26:00;6.60;99.90
18153;DHT22;9202;51.578;7.734;2023-04-25T04:28:04;6.60;99.90
18153;DHT22;9202;51.578;7.734;2023-04-25T04:30:10;6.60;99.90
18153;DHT22;9202;51.578;7.734;2023-04-25T04:32:15;6.50;99.90
18153;DHT22;9202;51.578;7.734;2023-04-25T04:34:17;6.60;99.90
18153;DHT22;9202;51.578;7.734;2023-04-25T04:36:20;6.60;99.90
18153;DHT22;9202;51.578;7.734;2023-04-25T04:38:24;6.60;99.90
18153;DHT22;9202;51.578;7.734;2023-04-25T04:40:29;6.60;99.90
18153;DHT22;9202;51.578;7.734;2023-04-25T04:42:35;6.60;99.90
18153;DHT22;9202;51.578;7.734;2023-04-25T04:44:39;6.60;99.90
18153;DHT22;9202;51.578;7.734;2023-04-25T04:46:44;6.60;99.90
18153;DHT22;9202;51.578;7.734;2023-04-25T04:48:50;6.60;99.90
18153;DHT22;9202;51.578;7.734;2023-04-25T04:50:55;6.60;99.90
18153;DHT22;9202;51.578;7.734;2023-04-25T04:52:59;6.60;99.90
18153;DHT22;9202;51.578;7.734;2023-04-25T04:55:04;6.60;99.90
18153;DHT22;9202;51.578;7.734;2023-04-25T04:57:09;6.60;99.90
18153;DHT22;9202;51.578;7.734;2023-04-25T04:59:14;6.60;99.90
18153;DHT22;9202;51.578;7.734;2023-04-25T05:01:22;6.60;99.90
18153;DHT22;9202;51.578;7.734;2023-04-25T05:03:26;6.60;99.90
18153;DHT22;9202;51.578;7.734;2023-04-25T05:05:31;6.60;99.90
18153;DHT22;9202;51.578;7.734;2023-04-25T05:07:36;6.50;99.90
18153;DHT22;9202;51.578;7.734;2023-04-25T05:09:40;6.50;99.90
18153;DHT22;9202;51.578;7.734;2023-04-25T05:11:45;6.50;99.90
18153;DHT22;9202;51.578;7.734;2023-04-25T05:13:50;6.60;99.90
18153;DHT22;9202;51.578;7.734;2023-04-25T05:15:55;6.60;99.90
18153;DHT22;9202;51.578;7.734;2023-04-25T05:18:00;6.60;99.90
18153;DHT22;9202;51.578;7.734;2023-04-25T05:20:06;6.60;99.90
18153;DHT22;9202;51.578;7.734;2023-04-25T05:22:12;6.60;99.90
18153;DHT22;9202;51.578;7.734;2023-04-25T05:24:17;6.60;99.90
18153;DHT22;9202;51.578;7.734;2023-04-25T05:26:21;6.60;99.90
18153;DHT22;9202;51.578;7.734;2023-04-25T05:28:25;6.60;99.90
18153;DHT22;9202;51.578;7.734;2023-04-25T05:30:30;6.60;99.90
18153;DHT22;9202;51.578;7.734;2023-04-25T05:32:34;6.70;99.90
18153;DHT22;9202;51.578;7.734;2023-04-25T05:34:37;6.70;99.90
18153;DHT22;9202;51.578;7.734;2023-04-25T05:36:41;6.70;99.90
18153;DHT22;9202;51.578;7.734;2023-04-25T05:38:44;6.70;99.90
18153;DHT22;9202;51.578;7.734;2023-04-25T05:40:48;6.70;99.90
18153;DHT22;9202;51.578;7.734;2023-04-25T05:42:53;6.70;99.90
18153;DHT22;9202;51.578;7.734;2023-04-25T05:44:56;6.80;99.90
18153;DHT22;9202;51.578;7.734;2023-04-25T05:47:00;6.70;99.90
18153;DHT22;9202;51.578;7.734;2023-04-25T05:49:05;6.70;99.90
18153;DHT22;9202;51.578;7.734;2023-04-25T05:51:09;6.80;99.90
18153;DHT22;9202;51.578;7.734;2023-04-25T05:53:14;6.80;99.90
18153;DHT22;9202;51.578;7.734;2023-04-25T05:55:18;6.80;99.90
18153;DHT22;9202;51.578;7.734;2023-04-25T05:57:21;6.80;99.90
18153;DHT22;9202;51.578;7.734;2023-04-25T05:59:24;6.80;99.90
18153;DHT22;9202;51.578;7.734;2023-04-25T06:01:27;6.80;99.90
18153;DHT22;9202;51.578;7.734;2023-04-25T06:03:29;6.80;99.90
18153;DHT22;9202;51.578;7.734;2023-04-25T06:05:33;6.80;99.90
18153;DHT22;9202;51.578;7.734;2023-04-25T06:07:35;6.70;99.90
18153;DHT22;9202;51.578;7.734;2023-04-25T06:09:38;6.80;99.90
18153;DHT22;9202;51.578;7.734;2023-04-25T06:11:41;6.80;99.90
18153;DHT22;9202;51.578;7.734;2023-04-25T06:13:44;6.80;99.90
18153;DHT22;9202;51.578;7.734;2023-04-25T06:15:47;6.90;99.90
18153;DHT22;9202;51.578;7.734;2023-04-25T06:17:50;7.00;99.90
18153;DHT22;9202;51.578;7.734;2023-04-25T06:19:52;7.00;99.90
18153;DHT22;9202;51.578;7.734;2023-04-25T06:21:55;7.00;99.90
18153;DHT22;9202;51.578;7.734;2023-04-25T06:23:57;7.10;99.90
18153;DHT22;9202;51.578;7.734;2023-04-25T06:26:00;7.10;99.90
18153;DHT22;9202;51.578;7.734;2023-04-25T06:28:04;7.20;99.90
18153;DHT22;9202;51.578;7.734;2023-04-25T06:30:08;7.10;99.90
18153;DHT22;9202;51.578;7.734;2023-04-25T06:32:11;7.20;99.90
18153;DHT22;9202;51.578;7.734;2023-04-25T06:34:15;7.20;99.90
18153;DHT22;9202;51.578;7.734;2023-04-25T06:36:18;7.10;99.90
18153;DHT22;9202;51.578;7.734;2023-04-25T06:38:22;7.10;99.90
18153;DHT22;9202;51.578;7.734;2023-04-25T06:40:26;7.10;99.90
18153;DHT22;9202;51.578;7.734;2023-04-25T06:42:29;7.10;99.90
18153;DHT22;9202;51.578;7.734;2023-04-25T06:44:33;7.10;99.90
18153;DHT22;9202;51.578;7.734;2023-04-25T06:46:36;7.20;99.90
18153;DHT22;9202;51.578;7.734;2023-04-25T06:48:39;7.20;99.90
18153;DHT22;9202;51.578;7.734;2023-04-25T06:50:44;7.10;99.90
18153;DHT22;9202;51.578;7.734;2023-04-25T06:52:51;7.20;99.90
18153;DHT22;9202;51.578;7.734;2023-04-25T06:55:02;7.20;99.90
18153;DHT22;9202;51.578;7.734;2023-04-25T06:57:27;7.20;99.90
18153;DHT22;9202;51.578;7.734;2023-04-25T07:02:17;7.30;99.90
18153;DHT22;9202;51.578;7.734;2023-04-25T07:04:20;7.50;99.90
18153;DHT22;9202;51.578;7.734;2023-04-25T07:06:25;7.50;99.90
18153;DHT22;9202;51.578;7.734;2023-04-25T07:08:29;7.50;99.90
18153;DHT22;9202;51.578;7.734;2023-04-25T07:10:32;7.60;99.90
18153;DHT22;9202;51.578;7.734;2023-04-25T07:12:35;7.60;99.90
18153;DHT22;9202;51.578;7.734;2023-04-25T07:14:38;7.70;99.90
18153;DHT22;9202;51.578;7.734;2023-04-25T07:16:41;7.70;99.90
18153;DHT22;9202;51.578;7.734;2023-04-25T07:18:45;7.80;99.90
18153;DHT22;9202;51.578;7.734;2023-04-25T07:20:48;7.80;99.90
18153;DHT22;9202;51.578;7.734;2023-04-25T07:22:51;7.80;99.90
18153;DHT22;9202;51.578;7.734;2023-04-25T07:24:54;7.70;99.90
18153;DHT22;9202;51.578;7.734;2023-04-25T07:26:58;7.90;99.90
18153;DHT22;9202;51.578;7.734;2023-04-25T07:29:02;7.90;99.90
18153;DHT22;9202;51.578;7.734;2023-04-25T07:31:05;7.90;99.90
18153;DHT22;9202;51.578;7.734;2023-04-25T07:33:07;8.00;99.90
18153;DHT22;9202;51.578;7.734;2023-04-25T07:35:10;8.10;99.90
18153;DHT22;9202;51.578;7.734;2023-04-25T07:37:13;8.20;99.90
18153;DHT22;9202;51.578;7.734;2023-04-25T07:39:18;8.20;99.90
18153;DHT22;9202;51.578;7.734;2023-04-25T07:41:20;8.30;99.90
18153;DHT22;9202;51.578;7.734;2023-04-25T07:43:23;8.40;99.90
18153;DHT22;9202;51.578;7.734;2023-04-25T07:45:27;8.50;99.90
18153;DHT22;9202;51.578;7.734;2023-04-25T07:47:30;8.50;99.90
18153;DHT22;9202;51.578;7.734;2023-04-25T07:49:33;8.50;99.90
18153;DHT22;9202;51.578;7.734;2023-04-25T07:51:36;8.50;99.90
18153;DHT22;9202;51.578;7.734;2023-04-25T07:53:41;8.40;99.90
18153;DHT22;9202;51.578;7.734;2023-04-25T07:55:45;8.40;99.90
18153;DHT22;9202;51.578;7.734;2023-04-25T07:57:49;8.50;99.90
18153;DHT22;9202;51.578;7.734;2023-04-25T07:59:52;8.60;99.90
18153;DHT22;9202;51.578;7.734;2023-04-25T08:01:55;8.70;99.90
18153;DHT22;9202;51.578;7.734;2023-04-25T08:03:59;8.70;99.90
18153;DHT22;9202;51.578;7.734;2023-04-25T08:06:04;8.70;99.90
18153;DHT22;9202;51.578;7.734;2023-04-25T08:08:11;8.60;99.90
18153;DHT22;9202;51.578;7.734;2023-04-25T08:10:14;8.60;99.90
18153;DHT22;9202;51.578;7.734;2023-04-25T08:12:17;8.70;99.90
18153;DHT22;9202;51.578;7.734;2023-04-25T08:14:19;8.80;99.90
18153;DHT22;9202;51.578;7.734;2023-04-25T08:16:23;8.80;99.90
18153;DHT22;9202;51.578;7.734;2023-04-25T08:18:25;8.80;99.90
18153;DHT22;9202;51.578;7.734;2023-04-25T08:20:28;8.80;99.90
18153;DHT22;9202;51.578;7.734;2023-04-25T08:22:31;8.80;99.90
18153;DHT22;9202;51.578;7.734;2023-04-25T08:24:36;8.90;99.90
18153;DHT22;9202;51.578;7.734;2023-04-25T08:26:41;8.90;99.90
18153;DHT22;9202;51.578;7.734;2023-04-25T08:28:45;8.90;99.90
18153;DHT22;9202;51.578;7.734;2023-04-25T08:30:48;9.00;99.90
18153;DHT22;9202;51.578;7.734;2023-04-25T08:32:51;9.00;99.90
18153;DHT22;9202;51.578;7.734;2023-04-25T08:34:55;9.10;99.90
18153;DHT22;9202;51.578;7.734;2023-04-25T08:36:58;9.00;99.90
18153;DHT22;9202;51.578;7.734;2023-04-25T08:39:03;8.90;99.90
18153;DHT22;9202;51.578;7.734;2023-04-25T08:41:06;8.80;99.90
18153;DHT22;9202;51.578;7.734;2023-04-25T08:43:08;8.70;99.90
18153;DHT22;9202;51.578;7.734;2023-04-25T08:45:13;8.80;99.90
18153;DHT22;9202;51.578;7.734;2023-04-25T08:47:16;8.80;99.90
18153;DHT22;9202;51.578;7.734;2023-04-25T08:49:22;8.90;99.90
18153;DHT22;9202;51.578;7.734;2023-04-25T08:51:30;8.90;99.90
18153;DHT22;9202;51.578;7.734;2023-04-25T08:53:34;9.00;99.90
18153;DHT22;9202;51.578;7.734;2023-04-25T08:55:39;9.20;99.90
18153;DHT22;9202;51.578;7.734;2023-04-25T08:57:44;9.30;99.90
18153;DHT22;9202;51.578;7.734;2023-04-25T08:59:47;9.30;99.90
18153;DHT22;9202;51.578;7.734;2023-04-25T09:01:50;9.60;99.90
18153;DHT22;9202;51.578;7.734;2023-04-25T09:03:54;9.70;99.90
18153;DHT22;9202;51.578;7.734;2023-04-25T09:06:00;9.70;99.90
18153;DHT22;9202;51.578;7.734;2023-04-25T09:08:03;9.70;99.90
18153;DHT22;9202;51.578;7.734;2023-04-25T09:10:07;9.60;99.90
18153;DHT22;9202;51.578;7.734;2023-04-25T09:12:12;9.50;99.90
18153;DHT22;9202;51.578;7.734;2023-04-25T09:14:15;9.60;99.90
18153;DHT22;9202;51.578;7.734;2023-04-25T09:16:20;9.60;99.90
18153;DHT22;9202;51.578;7.734;2023-04-25T09:18:26;9.80;99.90
18153;DHT22;9202;51.578;7.734;2023-04-25T09:20:31;9.90;99.90
18153;DHT22;9202;51.578;7.734;2023-04-25T09:22:41;9.90;99.90
18153;DHT22;9202;51.578;7.734;2023-04-25T09:24:45;9.90;99.90
18153;DHT22;9202;51.578;7.734;2023-04-25T09:26:48;9.80;99.90
18153;DHT22;9202;51.578;7.734;2023-04-25T09:28:56;9.80;99.90
18153;DHT22;9202;51.578;7.734;2023-04-25T09:31:01;9.70;99.90
18153;DHT22;9202;51.578;7.734;2023-04-25T09:33:05;9.60;99.90
18153;DHT22;9202;51.578;7.734;2023-04-25T09:35:08;9.50;99.90
18153;DHT22;9202;51.578;7.734;2023-04-25T09:37:11;9.50;99.90
18153;DHT22;9202;51.578;7.734;2023-04-25T09:39:16;9.40;99.90
18153;DHT22;9202;51.578;7.734;2023-04-25T09:41:22;9.30;99.90
18153;DHT22;9202;51.578;7.734;2023-04-25T09:43:25;9.20;99.90
18153;DHT22;9202;51.578;7.734;2023-04-25T09:45:29;9.10;99.90
18153;DHT22;9202;51.578;7.734;2023-04-25T09:47:36;9.10;99.90
18153;DHT22;9202;51.578;7.734;2023-04-25T09:49:39;9.10;99.90
18153;DHT22;9202;51.578;7.734;2023-04-25T09:51:48;9.10;99.90
18153;DHT22;9202;51.578;7.734;2023-04-25T09:53:53;9.20;99.90
18153;DHT22;9202;51.578;7.734;2023-04-25T09:55:57;9.40;99.90
18153;DHT22;9202;51.578;7.734;2023-04-25T09:58:03;9.40;99.90
18153;DHT22;9202;51.578;7.734;2023-04-25T10:00:07;9.50;99.90
18153;DHT22;9202;51.578;7.734;2023-04-25T10:02:15;9.50;99.90
18153;DHT22;9202;51.578;7.734;2023-04-25T10:04:19;9.60;99.90
18153;DHT22;9202;51.578;7.734;2023-04-25T10:06:25;9.70;99.90
18153;DHT22;9202;51.578;7.734;2023-04-25T10:08:29;9.70;99.90
18153;DHT22;9202;51.578;7.734;2023-04-25T10:10:33;9.80;99.90
18153;DHT22;9202;51.578;7.734;2023-04-25T10:12:38;10.00;99.90
18153;DHT22;9202;51.578;7.734;2023-04-25T10:14:42;10.10;99.90
18153;DHT22;9202;51.578;7.734;2023-04-25T10:16:44;10.20;99.90
18153;DHT22;9202;51.578;7.734;2023-04-25T10:18:47;10.40;99.90
18153;DHT22;9202;51.578;7.734;2023-04-25T10:20:50;10.50;99.90
18153;DHT22;9202;51.578;7.734;2023-04-25T10:22:55;10.50;99.90
18153;DHT22;9202;51.578;7.734;2023-04-25T10:24:59;10.40;99.90
18153;DHT22;9202;51.578;7.734;2023-04-25T10:27:02;10.80;99.90
18153;DHT22;9202;51.578;7.734;2023-04-25T10:29:06;10.90;99.90
18153;DHT22;9202;51.578;7.734;2023-04-25T10:31:09;10.90;99.90
18153;DHT22;9202;51.578;7.734;2023-04-25T10:33:16;10.90;99.90
18153;DHT22;9202;51.578;7.734;2023-04-25T10:35:24;10.70;99.90
18153;DHT22;9202;51.578;7.734;2023-04-25T10:37:24;10.50;99.90
18153;DHT22;9202;51.578;7.734;2023-04-25T10:39:27;10.40;99.90
18153;DHT22;9202;51.578;7.734;2023-04-25T10:43:45;10.40;99.90
18153;DHT22;9202;51.578;7.734;2023-04-25T10:45:51;10.50;99.90
18153;DHT22;9202;51.578;7.734;2023-04-25T10:47:54;10.50;99.90
18153;DHT22;9202;51.578;7.734;2023-04-25T10:49:57;10.50;99.90
18153;DHT22;9202;51.578;7.734;2023-04-25T10:52:17;10.50;99.90
18153;DHT22;9202;51.578;7.734;2023-04-25T10:54:20;10.20;99.90
18153;DHT22;9202;51.578;7.734;2023-04-25T10:56:25;10.00;99.90
18153;DHT22;9202;51.578;7.734;2023-04-25T10:58:28;9.90;99.90
18153;DHT22;9202;51.578;7.734;2023-04-25T11:00:31;9.70;99.90
18153;DHT22;9202;51.578;7.734;2023-04-25T11:02:37;9.60;99.90
18153;DHT22;9202;51.578;7.734;2023-04-25T11:04:40;9.50;99.90
18153;DHT22;9202;51.578;7.734;2023-04-25T11:06:45;9.30;99.90
18153;DHT22;9202;51.578;7.734;2023-04-25T11:08:48;9.20;99.90
18153;DHT22;9202;51.578;7.734;2023-04-25T11:10:52;9.10;99.90
18153;DHT22;9202;51.578;7.734;2023-04-25T11:12:54;9.00;99.90
18153;DHT22;9202;51.578;7.734;2023-04-25T11:15:04;8.90;99.90
18153;DHT22;9202;51.578;7.734;2023-04-25T11:17:07;8.80;99.90
18153;DHT22;9202;51.578;7.734;2023-04-25T11:19:10;8.70;99.90
18153;DHT22;9202;51.578;7.734;2023-04-25T11:21:13;8.60;99.90
18153;DHT22;9202;51.578;7.734;2023-04-25T11:23:16;8.50;99.90
18153;DHT22;9202;51.578;7.734;2023-04-25T11:25:18;8.50;99.90
18153;DHT22;9202;51.578;7.734;2023-04-25T11:27:22;8.50;99.90
18153;DHT22;9202;51.578;7.734;2023-04-25T11:29:26;8.50;99.90
18153;DHT22;9202;51.578;7.734;2023-04-25T11:31:29;8.60;99.90
18153;DHT22;9202;51.578;7.734;2023-04-25T11:33:32;8.60;99.90
18153;DHT22;9202;51.578;7.734;2023-04-25T11:35:34;8.70;99.90
18153;DHT22;9202;51.578;7.734;2023-04-25T11:37:37;8.70;99.90
18153;DHT22;9202;51.578;7.734;2023-04-25T11:39:44;8.80;99.90
18153;DHT22;9202;51.578;7.734;2023-04-25T11:41:49;8.70;99.90
18153;DHT22;9202;51.578;7.734;2023-04-25T11:43:52;8.60;99.90
18153;DHT22;9202;51.578;7.734;2023-04-25T11:45:56;8.60;99.90
18153;DHT22;9202;51.578;7.734;2023-04-25T11:47:59;8.60;99.90
18153;DHT22;9202;51.578;7.734;2023-04-25T11:50:02;8.70;99.90
18153;DHT22;9202;51.578;7.734;2023-04-25T11:52:06;8.80;99.90
18153;DHT22;9202;51.578;7.734;2023-04-25T11:54:09;8.80;99.90
18153;DHT22;9202;51.578;7.734;2023-04-25T11:56:12;8.80;99.90
18153;DHT22;9202;51.578;7.734;2023-04-25T11:58:14;8.80;99.90
18153;DHT22;9202;51.578;7.734;2023-04-25T12:00:18;9.00;99.90
18153;DHT22;9202;51.578;7.734;2023-04-25T12:02:24;9.10;99.90
18153;DHT22;9202;51.578;7.734;2023-04-25T12:04:29;9.30;99.90
18153;DHT22;9202;51.578;7.734;2023-04-25T12:06:32;9.60;99.90
18153;DHT22;9202;51.578;7.734;2023-04-25T12:08:37;9.90;99.90
18153;DHT22;9202;51.578;7.734;2023-04-25T12:10:40;10.10;99.90
18153;DHT22;9202;51.578;7.734;2023-04-25T12:12:43;10.30;99.90
18153;DHT22;9202;51.578;7.734;2023-04-25T12:14:47;10.50;99.90
18153;DHT22;9202;51.578;7.734;2023-04-25T12:16:50;10.70;99.90
18153;DHT22;9202;51.578;7.734;2023-04-25T12:18:53;10.60;99.90
18153;DHT22;9202;51.578;7.734;2023-04-25T12:20:55;10.80;99.90
18153;DHT22;9202;51.578;7.734;2023-04-25T12:22:58;11.00;99.90
18153;DHT22;9202;51.578;7.734;2023-04-25T12:25:02;11.20;99.90
18153;DHT22;9202;51.578;7.734;2023-04-25T12:27:06;11.40;99.90
18153;DHT22;9202;51.578;7.734;2023-04-25T12:29:15;11.40;99.90
18153;DHT22;9202;51.578;7.734;2023-04-25T12:31:17;11.10;99.90
18153;DHT22;9202;51.578;7.734;2023-04-25T12:33:20;11.10;99.90
18153;DHT22;9202;51.578;7.734;2023-04-25T12:35:23;11.10;99.90
18153;DHT22;9202;51.578;7.734;2023-04-25T12:37:25;11.10;99.90
18153;DHT22;9202;51.578;7.734;2023-04-25T12:39:28;11.30;99.90
18153;DHT22;9202;51.578;7.734;2023-04-25T12:41:31;11.30;99.90
18153;DHT22;9202;51.578;7.734;2023-04-25T12:43:34;11.30;99.90
18153;DHT22;9202;51.578;7.734;2023-04-25T12:45:36;11.40;99.90
18153;DHT22;9202;51.578;7.734;2023-04-25T12:47:39;11.60;99.90
18153;DHT22;9202;51.578;7.734;2023-04-25T12:49:41;11.60;99.90
18153;DHT22;9202;51.578;7.734;2023-04-25T12:51:44;11.40;99.90
18153;DHT22;9202;51.578;7.734;2023-04-25T12:53:46;11.30;99.90
18153;DHT22;9202;51.578;7.734;2023-04-25T12:55:49;11.30;99.90
18153;DHT22;9202;51.578;7.734;2023-04-25T12:57:52;11.20;99.90
18153;DHT22;9202;51.578;7.734;2023-04-25T12:59:55;11.10;99.90
18153;DHT22;9202;51.578;7.734;2023-04-25T13:01:57;10.90;99.90
18153;DHT22;9202;51.578;7.734;2023-04-25T13:06:19;10.30;99.90
18153;DHT22;9202;51.578;7.734;2023-04-25T13:08:21;9.90;99.90
18153;DHT22;9202;51.578;7.734;2023-04-25T13:10:24;9.80;99.90
18153;DHT22;9202;51.578;7.734;2023-04-25T13:12:27;9.70;99.90
18153;DHT22;9202;51.578;7.734;2023-04-25T13:14:29;9.70;99.90
18153;DHT22;9202;51.578;7.734;2023-04-25T13:16:32;9.80;99.90
18153;DHT22;9202;51.578;7.734;2023-04-25T13:18:34;10.00;99.90
18153;DHT22;9202;51.578;7.734;2023-04-25T13:20:37;10.20;99.90
18153;DHT22;9202;51.578;7.734;2023-04-25T13:22:40;10.40;99.90
18153;DHT22;9202;51.578;7.734;2023-04-25T13:24:42;10.50;99.90
18153;DHT22;9202;51.578;7.734;2023-04-25T13:26:45;10.70;99.90
18153;DHT22;9202;51.578;7.734;2023-04-25T13:28:47;11.10;99.90
18153;DHT22;9202;51.578;7.734;2023-04-25T13:30:50;11.30;99.90
18153;DHT22;9202;51.578;7.734;2023-04-25T13:32:53;11.50;99.90
18153;DHT22;9202;51.578;7.734;2023-04-25T13:34:58;11.70;99.90
18153;DHT22;9202;51.578;7.734;2023-04-25T13:37:00;11.90;99.90
18153;DHT22;9202;51.578;7.734;2023-04-25T13:39:03;12.20;99.90